sensor_id;sensor_type;location;lat;lon;timestamp;pressure;altitude;pressure_sealevel;temperature;humidity
60101;BME280;45978;53.646;55.930;2022-12-29T00:00:31;100485.91;;;-6.22;74.19
60101;BME280;45978;53.646;55.930;2022-12-29T00:01:32;100501.47;;;-6.18;74.09
60101;BME280;45978;53.646;55.930;2022-12-29T00:02:34;100488.44;;;-6.22;73.98
60101;BME280;45978;53.646;55.930;2022-12-29T00:03:36;100484.06;;;-6.25;73.91
60101;BME280;45978;53.646;55.930;2022-12-29T00:04:38;100500.19;;;-6.26;73.96
60101;BME280;45978;53.646;55.930;2022-12-29T00:05:42;100507.28;;;-6.20;74.01
60101;BME280;45978;53.646;55.930;2022-12-29T00:06:44;100495.81;;;-6.28;73.99
60101;BME280;45978;53.646;55.930;2022-12-29T00:07:45;100484.72;;;-6.29;73.54
60101;BME280;45978;53.646;55.930;2022-12-29T00:08:46;100491.00;;;-6.22;73.54
60101;BME280;45978;53.646;55.930;2022-12-29T00:09:47;100498.66;;;-6.22;73.23
60101;BME280;45978;53.646;55.930;2022-12-29T00:10:49;100488.31;;;-6.25;73.72
60101;BME280;45978;53.646;55.930;2022-12-29T00:11:50;100493.44;;;-6.25;73.12
60101;BME280;45978;53.646;55.930;2022-12-29T00:12:51;100494.06;;;-6.29;73.55
60101;BME280;45978;53.646;55.930;2022-12-29T00:14:12;100497.25;;;-6.33;73.82
60101;BME280;45978;53.646;55.930;2022-12-29T00:15:38;100492.88;;;-6.36;73.81
60101;BME280;45978;53.646;55.930;2022-12-29T00:16:44;100489.38;;;-6.38;73.41
60101;BME280;45978;53.646;55.930;2022-12-29T00:17:45;100481.19;;;-6.49;73.87
60101;BME280;45978;53.646;55.930;2022-12-29T00:18:47;100484.03;;;-6.43;73.01
60101;BME280;45978;53.646;55.930;2022-12-29T00:19:48;100489.22;;;-6.41;73.47
60101;BME280;45978;53.646;55.930;2022-12-29T00:21:14;100474.78;;;-6.57;73.20
60101;BME280;45978;53.646;55.930;2022-12-29T00:22:33;100477.03;;;-6.47;73.55
60101;BME280;45978;53.646;55.930;2022-12-29T00:23:53;100475.56;;;-6.42;73.30
60101;BME280;45978;53.646;55.930;2022-12-29T00:25:11;100465.03;;;-6.48;73.19
60101;BME280;45978;53.646;55.930;2022-12-29T00:26:31;100478.06;;;-6.43;73.70
60101;BME280;45978;53.646;55.930;2022-12-29T00:27:52;100477.03;;;-6.47;73.69
60101;BME280;45978;53.646;55.930;2022-12-29T00:29:12;100477.06;;;-6.45;74.01
60101;BME280;45978;53.646;55.930;2022-12-29T00:30:32;100483.66;;;-6.50;73.36
60101;BME280;45978;53.646;55.930;2022-12-29T00:31:52;100471.75;;;-6.50;73.44
60101;BME280;45978;53.646;55.930;2022-12-29T00:33:18;100468.25;;;-6.52;73.51
60101;BME280;45978;53.646;55.930;2022-12-29T00:34:38;100473.53;;;-6.49;73.57
60101;BME280;45978;53.646;55.930;2022-12-29T00:36:12;100467.13;;;-6.57;73.41
60101;BME280;45978;53.646;55.930;2022-12-29T00:37:16;100471.63;;;-6.53;73.61
60101;BME280;45978;53.646;55.930;2022-12-29T00:38:18;100473.28;;;-6.53;73.13
60101;BME280;45978;53.646;55.930;2022-12-29T00:39:39;100474.31;;;-6.50;73.38
60101;BME280;45978;53.646;55.930;2022-12-29T00:40:59;100477.69;;;-6.51;73.97
60101;BME280;45978;53.646;55.930;2022-12-29T00:42:20;100469.53;;;-6.60;73.30
60101;BME280;45978;53.646;55.930;2022-12-29T00:43:39;100476.94;;;-6.48;73.22
60101;BME280;45978;53.646;55.930;2022-12-29T00:44:59;100474.22;;;-6.51;73.58
60101;BME280;45978;53.646;55.930;2022-12-29T00:46:00;100481.25;;;-6.47;73.30
60101;BME280;45978;53.646;55.930;2022-12-29T00:47:01;100473.44;;;-6.50;73.17
60101;BME280;45978;53.646;55.930;2022-12-29T00:48:06;100482.53;;;-6.39;73.41
60101;BME280;45978;53.646;55.930;2022-12-29T00:49:10;100482.56;;;-6.38;72.94
60101;BME280;45978;53.646;55.930;2022-12-29T00:50:31;100466.81;;;-6.47;73.27
60101;BME280;45978;53.646;55.930;2022-12-29T00:51:32;100474.69;;;-6.42;72.67
60101;BME280;45978;53.646;55.930;2022-12-29T00:52:34;100474.84;;;-6.39;72.94
60101;BME280;45978;53.646;55.930;2022-12-29T00:53:35;100476.69;;;-6.37;73.04
60101;BME280;45978;53.646;55.930;2022-12-29T00:54:38;100482.09;;;-6.30;73.04
60101;BME280;45978;53.646;55.930;2022-12-29T00:55:40;100467.03;;;-6.42;72.94
60101;BME280;45978;53.646;55.930;2022-12-29T00:56:41;100490.50;;;-6.33;73.04
60101;BME280;45978;53.646;55.930;2022-12-29T00:57:43;100480.47;;;-6.28;72.54
60101;BME280;45978;53.646;55.930;2022-12-29T00:58:46;100489.91;;;-6.27;72.14
60101;BME280;45978;53.646;55.930;2022-12-29T00:59:50;100485.81;;;-6.24;72.84
60101;BME280;45978;53.646;55.930;2022-12-29T01:00:51;100484.47;;;-6.33;72.57
60101;BME280;45978;53.646;55.930;2022-12-29T01:01:53;100478.41;;;-6.35;72.60
60101;BME280;45978;53.646;55.930;2022-12-29T01:02:54;100480.03;;;-6.38;71.53
60101;BME280;45978;53.646;55.930;2022-12-29T01:03:56;100480.84;;;-6.39;71.47
60101;BME280;45978;53.646;55.930;2022-12-29T01:04:57;100460.97;;;-6.44;71.11
60101;BME280;45978;53.646;55.930;2022-12-29T01:06:06;100469.75;;;-6.39;71.15
60101;BME280;45978;53.646;55.930;2022-12-29T01:07:08;100473.56;;;-6.31;71.64
60101;BME280;45978;53.646;55.930;2022-12-29T01:08:11;100486.16;;;-6.34;71.35
60101;BME280;45978;53.646;55.930;2022-12-29T01:09:14;100469.66;;;-6.41;70.76
60101;BME280;45978;53.646;55.930;2022-12-29T01:10:35;100470.53;;;-6.40;71.31
60101;BME280;45978;53.646;55.930;2022-12-29T01:11:37;100474.69;;;-6.42;70.75
60101;BME280;45978;53.646;55.930;2022-12-29T01:12:39;100473.25;;;-6.37;71.35
60101;BME280;45978;53.646;55.930;2022-12-29T01:13:44;100476.03;;;-6.32;71.55
60101;BME280;45978;53.646;55.930;2022-12-29T01:14:48;100477.97;;;-6.45;70.42
60101;BME280;45978;53.646;55.930;2022-12-29T01:15:51;100480.97;;;-6.35;71.24
60101;BME280;45978;53.646;55.930;2022-12-29T01:16:53;100474.91;;;-6.38;71.26
60101;BME280;45978;53.646;55.930;2022-12-29T01:17:54;100472.22;;;-6.41;70.92
60101;BME280;45978;53.646;55.930;2022-12-29T01:18:56;100469.66;;;-6.41;71.31
60101;BME280;45978;53.646;55.930;2022-12-29T01:19:57;100473.31;;;-6.35;70.82
60101;BME280;45978;53.646;55.930;2022-12-29T01:21:02;100476.03;;;-6.32;70.63
60101;BME280;45978;53.646;55.930;2022-12-29T01:22:03;100477.47;;;-6.38;71.46
60101;BME280;45978;53.646;55.930;2022-12-29T01:23:04;100468.94;;;-6.38;71.42
60101;BME280;45978;53.646;55.930;2022-12-29T01:24:10;100470.03;;;-6.33;70.98
60101;BME280;45978;53.646;55.930;2022-12-29T01:25:11;100465.34;;;-6.42;71.58
60101;BME280;45978;53.646;55.930;2022-12-29T01:26:15;100473.38;;;-6.34;71.18
60101;BME280;45978;53.646;55.930;2022-12-29T01:27:17;100483.38;;;-6.39;71.28
60101;BME280;45978;53.646;55.930;2022-12-29T01:28:18;100475.72;;;-6.39;71.07
60101;BME280;45978;53.646;55.930;2022-12-29T01:29:21;100468.19;;;-6.35;71.27
60101;BME280;45978;53.646;55.930;2022-12-29T01:30:23;100474.22;;;-6.35;70.58
60101;BME280;45978;53.646;55.930;2022-12-29T01:31:27;100477.16;;;-6.44;70.92
60101;BME280;45978;53.646;55.930;2022-12-29T01:32:28;100477.34;;;-6.41;70.36
60101;BME280;45978;53.646;55.930;2022-12-29T01:33:32;100472.88;;;-6.45;70.64
60101;BME280;45978;53.646;55.930;2022-12-29T01:34:34;100466.00;;;-6.46;70.96
60101;BME280;45978;53.646;55.930;2022-12-29T01:35:38;100473.91;;;-6.41;70.32
60101;BME280;45978;53.646;55.930;2022-12-29T01:36:39;100464.56;;;-6.41;70.91
60101;BME280;45978;53.646;55.930;2022-12-29T01:37:40;100480.34;;;-6.31;71.21
60101;BME280;45978;53.646;55.930;2022-12-29T01:38:42;100479.00;;;-6.41;70.64
60101;BME280;45978;53.646;55.930;2022-12-29T01:39:44;100457.38;;;-6.48;70.74
60101;BME280;45978;53.646;55.930;2022-12-29T01:40:47;100480.84;;;-6.39;70.36
60101;BME280;45978;53.646;55.930;2022-12-29T01:41:49;100472.69;;;-6.48;70.37
60101;BME280;45978;53.646;55.930;2022-12-29T01:42:50;100470.00;;;-6.51;70.17
60101;BME280;45978;53.646;55.930;2022-12-29T01:44:01;100475.25;;;-6.48;70.06
60101;BME280;45978;53.646;55.930;2022-12-29T01:45:14;100457.25;;;-6.51;70.34
60101;BME280;45978;53.646;55.930;2022-12-29T01:46:28;100463.69;;;-6.41;70.27
60101;BME280;45978;53.646;55.930;2022-12-29T01:47:41;100469.66;;;-6.41;70.71
60101;BME280;45978;53.646;55.930;2022-12-29T01:48:46;100453.09;;;-6.49;70.62
60101;BME280;45978;53.646;55.930;2022-12-29T01:49:59;100461.69;;;-6.47;70.62
60101;BME280;45978;53.646;55.930;2022-12-29T01:51:02;100461.69;;;-6.47;70.34
60101;BME280;45978;53.646;55.930;2022-12-29T01:52:06;100462.66;;;-6.45;69.97
60101;BME280;45978;53.646;55.930;2022-12-29T01:53:21;100453.88;;;-6.50;71.11
60101;BME280;45978;53.646;55.930;2022-12-29T01:54:30;100457.84;;;-6.39;70.93
60101;BME280;45978;53.646;55.930;2022-12-29T01:55:36;100460.41;;;-6.39;70.78
60101;BME280;45978;53.646;55.930;2022-12-29T01:56:39;100456.72;;;-6.44;70.42
60101;BME280;45978;53.646;55.930;2022-12-29T01:57:43;100464.38;;;-6.44;70.21
60101;BME280;45978;53.646;55.930;2022-12-29T01:58:53;100443.53;;;-6.53;70.60
60101;BME280;45978;53.646;55.930;2022-12-29T02:00:01;100460.22;;;-6.42;70.44
60101;BME280;45978;53.646;55.930;2022-12-29T02:01:15;100464.09;;;-6.50;70.52
60101;BME280;45978;53.646;55.930;2022-12-29T02:02:22;100455.00;;;-6.45;71.15
60101;BME280;45978;53.646;55.930;2022-12-29T02:03:26;100463.69;;;-6.41;70.75
60101;BME280;45978;53.646;55.930;2022-12-29T02:04:31;100461.75;;;-6.45;70.73
60101;BME280;45978;53.646;55.930;2022-12-29T02:06:57;100454.91;;;-6.46;69.83
60101;BME280;45978;53.646;55.930;2022-12-29T02:08:01;100455.00;;;-6.45;70.42
60101;BME280;45978;53.646;55.930;2022-12-29T02:09:02;100463.31;;;-6.49;70.26
60101;BME280;45978;53.646;55.930;2022-12-29T02:10:06;100438.03;;;-6.61;70.43
60101;BME280;45978;53.646;55.930;2022-12-29T02:11:09;100463.59;;;-6.43;70.07
60101;BME280;45978;53.646;55.930;2022-12-29T02:12:12;100472.97;;;-6.43;70.28
60101;BME280;45978;53.646;55.930;2022-12-29T02:13:16;100459.28;;;-6.44;69.70
60101;BME280;45978;53.646;55.930;2022-12-29T02:14:42;100457.38;;;-6.48;69.25
60101;BME280;45978;53.646;55.930;2022-12-29T02:21:58;100460.00;;;-6.46;70.27
60101;BME280;45978;53.646;55.930;2022-12-29T02:30:01;100469.38;;;-6.47;69.69
60101;BME280;45978;53.646;55.930;2022-12-29T02:35:50;100475.03;;;-6.52;70.03
60101;BME280;45978;53.646;55.930;2022-12-29T02:37:06;100471.75;;;-6.50;70.10
60101;BME280;45978;53.646;55.930;2022-12-29T02:38:30;100475.25;;;-6.48;69.72
60101;BME280;45978;53.646;55.930;2022-12-29T02:41:13;100473.34;;;-6.52;69.66
60101;BME280;45978;53.646;55.930;2022-12-29T02:42:35;100470.06;;;-6.49;70.09
60101;BME280;45978;53.646;55.930;2022-12-29T02:47:51;100467.22;;;-6.55;69.31
60101;BME280;45978;53.646;55.930;2022-12-29T02:50:22;100469.19;;;-6.50;69.23
60101;BME280;45978;53.646;55.930;2022-12-29T02:51:33;100457.94;;;-6.53;69.67
60101;BME280;45978;53.646;55.930;2022-12-29T02:52:43;100444.94;;;-6.58;69.00
60101;BME280;45978;53.646;55.930;2022-12-29T02:53:48;100466.25;;;-6.58;69.81
60101;BME280;45978;53.646;55.930;2022-12-29T02:55:11;100449.25;;;-6.57;69.20
60101;BME280;45978;53.646;55.930;2022-12-29T02:56:14;100451.00;;;-6.56;69.60
60101;BME280;45978;53.646;55.930;2022-12-29T02:58:23;100450.06;;;-6.58;69.07
60101;BME280;45978;53.646;55.930;2022-12-29T02:59:25;100452.91;;;-6.52;68.74
60101;BME280;45978;53.646;55.930;2022-12-29T03:00:27;100453.78;;;-6.51;69.31
60101;BME280;45978;53.646;55.930;2022-12-29T03:03:41;100446.94;;;-6.52;69.92
60101;BME280;45978;53.646;55.930;2022-12-29T03:06:01;100461.41;;;-6.53;69.68
60101;BME280;45978;53.646;55.930;2022-12-29T03:09:51;100444.66;;;-6.64;68.82
60101;BME280;45978;53.646;55.930;2022-12-29T03:12:19;100451.75;;;-6.59;69.57
60101;BME280;45978;53.646;55.930;2022-12-29T03:15:01;100456.69;;;-6.62;70.32
60101;BME280;45978;53.646;55.930;2022-12-29T03:20:07;100443.53;;;-6.69;70.10
60101;BME280;45978;53.646;55.930;2022-12-29T03:22:59;100443.44;;;-6.71;70.03
60101;BME280;45978;53.646;55.930;2022-12-29T03:24:05;100452.88;;;-6.70;69.54
60101;BME280;45978;53.646;55.930;2022-12-29T03:25:33;100449.38;;;-6.72;69.43
60101;BME280;45978;53.646;55.930;2022-12-29T03:26:42;100457.41;;;-6.64;69.93
60101;BME280;45978;53.646;55.930;2022-12-29T03:27:56;100448.50;;;-6.72;69.64
60101;BME280;45978;53.646;55.930;2022-12-29T03:29:02;100452.72;;;-6.73;69.61
60101;BME280;45978;53.646;55.930;2022-12-29T03:30:05;100457.97;;;-6.70;69.23
60101;BME280;45978;53.646;55.930;2022-12-29T03:31:09;100441.50;;;-6.77;70.00
60101;BME280;45978;53.646;55.930;2022-12-29T03:32:15;100452.78;;;-6.71;70.15
60101;BME280;45978;53.646;55.930;2022-12-29T03:33:22;100454.31;;;-6.75;69.88
60101;BME280;45978;53.646;55.930;2022-12-29T03:34:26;100458.63;;;-6.74;70.26
60101;BME280;45978;53.646;55.930;2022-12-29T03:35:33;100448.97;;;-6.80;69.30
60101;BME280;45978;53.646;55.930;2022-12-29T03:36:49;100452.66;;;-6.74;70.09
60101;BME280;45978;53.646;55.930;2022-12-29T03:38:15;100451.06;;;-6.72;69.59
60101;BME280;45978;53.646;55.930;2022-12-29T03:39:20;100441.50;;;-6.77;69.15
60101;BME280;45978;53.646;55.930;2022-12-29T03:40:24;100445.03;;;-6.73;69.46
60101;BME280;45978;53.646;55.930;2022-12-29T03:41:30;100451.75;;;-6.75;70.43
60101;BME280;45978;53.646;55.930;2022-12-29T03:42:36;100437.81;;;-6.82;68.87
60101;BME280;45978;53.646;55.930;2022-12-29T03:43:38;100451.84;;;-6.73;70.40
60101;BME280;45978;53.646;55.930;2022-12-29T03:44:43;100445.63;;;-6.79;70.18
60101;BME280;45978;53.646;55.930;2022-12-29T03:45:47;100451.63;;;-6.78;69.91
60101;BME280;45978;53.646;55.930;2022-12-29T03:46:50;100437.50;;;-6.88;70.22
60101;BME280;45978;53.646;55.930;2022-12-29T03:47:53;100452.41;;;-6.79;69.34
60101;BME280;45978;53.646;55.930;2022-12-29T03:48:55;100451.31;;;-6.84;70.13
60101;BME280;45978;53.646;55.930;2022-12-29T03:49:58;100440.63;;;-6.93;69.94
60101;BME280;45978;53.646;55.930;2022-12-29T03:51:00;100454.56;;;-6.87;69.89
60101;BME280;45978;53.646;55.930;2022-12-29T03:52:03;100457.94;;;-6.88;70.13
60101;BME280;45978;53.646;55.930;2022-12-29T03:53:10;100453.56;;;-6.90;70.20
60101;BME280;45978;53.646;55.930;2022-12-29T03:54:12;100446.28;;;-6.99;70.39
60101;BME280;45978;53.646;55.930;2022-12-29T03:55:14;100442.69;;;-7.03;70.29
60101;BME280;45978;53.646;55.930;2022-12-29T03:56:18;100446.06;;;-7.04;69.54
60101;BME280;45978;53.646;55.930;2022-12-29T03:57:24;100439.81;;;-7.09;70.46
60101;BME280;45978;53.646;55.930;2022-12-29T03:58:34;100411.84;;;-7.24;69.41
60101;BME280;45978;53.646;55.930;2022-12-29T03:59:43;100427.56;;;-7.16;70.23
60101;BME280;45978;53.646;55.930;2022-12-29T04:00:47;100436.19;;;-7.14;70.27
60101;BME280;45978;53.646;55.930;2022-12-29T04:01:49;100458.81;;;-7.04;70.29
60101;BME280;45978;53.646;55.930;2022-12-29T04:02:52;100434.41;;;-7.15;69.83
60101;BME280;45978;53.646;55.930;2022-12-29T04:03:57;100450.34;;;-7.03;70.40
60101;BME280;45978;53.646;55.930;2022-12-29T04:04:58;100457.31;;;-7.00;70.06
60101;BME280;45978;53.646;55.930;2022-12-29T04:06:02;100439.03;;;-7.08;70.31
60101;BME280;45978;53.646;55.930;2022-12-29T04:07:11;100442.94;;;-6.98;70.37
60101;BME280;45978;53.646;55.930;2022-12-29T04:08:15;100439.50;;;-6.99;70.35
60101;BME280;45978;53.646;55.930;2022-12-29T04:09:19;100448.28;;;-6.93;69.54
60101;BME280;45978;53.646;55.930;2022-12-29T04:10:24;100449.06;;;-6.94;69.48
60101;BME280;45978;53.646;55.930;2022-12-29T04:11:31;100440.31;;;-7.00;70.52
60101;BME280;45978;53.646;55.930;2022-12-29T04:12:33;100450.66;;;-6.97;69.60
60101;BME280;45978;53.646;55.930;2022-12-29T04:13:35;100444.38;;;-7.03;69.89
60101;BME280;45978;53.646;55.930;2022-12-29T04:14:36;100444.28;;;-7.05;69.72
60101;BME280;45978;53.646;55.930;2022-12-29T04:15:38;100450.44;;;-7.01;69.59
60101;BME280;45978;53.646;55.930;2022-12-29T04:16:39;100451.47;;;-6.98;70.03
60101;BME280;45978;53.646;55.930;2022-12-29T04:17:42;100461.22;;;-6.90;69.90
60101;BME280;45978;53.646;55.930;2022-12-29T04:18:43;100460.31;;;-6.91;69.80
60101;BME280;45978;53.646;55.930;2022-12-29T04:19:47;100459.34;;;-6.93;68.63
60101;BME280;45978;53.646;55.930;2022-12-29T04:20:49;100455.22;;;-6.91;69.61
60101;BME280;45978;53.646;55.930;2022-12-29T04:22:04;100437.91;;;-6.97;69.30
60101;BME280;45978;53.646;55.930;2022-12-29T04:23:07;100451.69;;;-6.93;70.13
60101;BME280;45978;53.646;55.930;2022-12-29T04:24:10;100436.72;;;-7.03;68.61
60101;BME280;45978;53.646;55.930;2022-12-29T04:25:16;100457.34;;;-6.99;69.29
60101;BME280;45978;53.646;55.930;2022-12-29T04:26:18;100449.56;;;-7.02;69.36
60101;BME280;45978;53.646;55.930;2022-12-29T04:27:30;100452.91;;;-7.03;69.33
60101;BME280;45978;53.646;55.930;2022-12-29T04:29:10;100451.84;;;-7.06;69.60
60101;BME280;45978;53.646;55.930;2022-12-29T04:30:24;100467.34;;;-7.03;68.89
60101;BME280;45978;53.646;55.930;2022-12-29T04:31:54;100455.69;;;-7.14;69.01
60101;BME280;45978;53.646;55.930;2022-12-29T04:32:55;100456.81;;;-7.09;69.66
60101;BME280;45978;53.646;55.930;2022-12-29T04:33:58;100456.09;;;-7.07;69.61
60101;BME280;45978;53.646;55.930;2022-12-29T04:35:01;100457.47;;;-7.13;69.04
60101;BME280;45978;53.646;55.930;2022-12-29T04:36:03;100456.59;;;-7.14;69.83
60101;BME280;45978;53.646;55.930;2022-12-29T04:37:04;100449.06;;;-7.11;68.85
60101;BME280;45978;53.646;55.930;2022-12-29T04:38:05;100465.44;;;-7.07;68.71
60101;BME280;45978;53.646;55.930;2022-12-29T04:39:08;100467.16;;;-7.06;68.72
60101;BME280;45978;53.646;55.930;2022-12-29T04:40:10;100466.84;;;-7.12;68.78
60101;BME280;45978;53.646;55.930;2022-12-29T04:41:14;100478.28;;;-7.06;69.50
60101;BME280;45978;53.646;55.930;2022-12-29T04:42:17;100471.50;;;-7.05;68.27
60101;BME280;45978;53.646;55.930;2022-12-29T04:43:19;100465.66;;;-7.03;69.33
60101;BME280;45978;53.646;55.930;2022-12-29T04:44:52;100471.72;;;-7.01;68.47
60101;BME280;45978;53.646;55.930;2022-12-29T04:46:17;100476.34;;;-6.93;68.43
60101;BME280;45978;53.646;55.930;2022-12-29T04:47:29;100461.44;;;-7.02;68.29
60101;BME280;45978;53.646;55.930;2022-12-29T04:48:50;100467.91;;;-7.09;68.73
60101;BME280;45978;53.646;55.930;2022-12-29T04:50:25;100464.78;;;-7.03;68.86
60101;BME280;45978;53.646;55.930;2022-12-29T04:51:36;100478.72;;;-6.97;68.50
60101;BME280;45978;53.646;55.930;2022-12-29T04:52:37;100468.59;;;-6.95;68.53
60101;BME280;45978;53.646;55.930;2022-12-29T04:53:39;100479.00;;;-6.92;68.29
60101;BME280;45978;53.646;55.930;2022-12-29T04:54:42;100467.66;;;-6.97;69.19
60101;BME280;45978;53.646;55.930;2022-12-29T04:55:51;100470.78;;;-6.86;68.79
60101;BME280;45978;53.646;55.930;2022-12-29T04:56:52;100471.47;;;-6.89;67.91
60101;BME280;45978;53.646;55.930;2022-12-29T04:57:54;100467.75;;;-6.95;68.56
60101;BME280;45978;53.646;55.930;2022-12-29T04:58:57;100473.06;;;-6.91;67.95
60101;BME280;45978;53.646;55.930;2022-12-29T04:59:59;100469.56;;;-6.93;68.65
60101;BME280;45978;53.646;55.930;2022-12-29T05:01:01;100476.53;;;-6.90;67.75
60101;BME280;45978;53.646;55.930;2022-12-29T05:02:04;100462.56;;;-7.13;68.08
60101;BME280;45978;53.646;55.930;2022-12-29T05:03:08;100475.00;;;-7.03;68.10
60101;BME280;45978;53.646;55.930;2022-12-29T05:04:13;100472.63;;;-7.00;68.50
60101;BME280;45978;53.646;55.930;2022-12-29T05:05:16;100476.66;;;-6.87;67.96
60101;BME280;45978;53.646;55.930;2022-12-29T05:06:22;100477.41;;;-6.90;68.08
60101;BME280;45978;53.646;55.930;2022-12-29T05:07:24;100464.72;;;-6.88;68.07
60101;BME280;45978;53.646;55.930;2022-12-29T05:08:27;100458.41;;;-6.95;67.38
60101;BME280;45978;53.646;55.930;2022-12-29T05:09:28;100467.31;;;-6.87;67.99
60101;BME280;45978;53.646;55.930;2022-12-29T05:10:31;100471.00;;;-6.82;67.42
60101;BME280;45978;53.646;55.930;2022-12-29T05:11:36;100474.59;;;-6.78;68.05
60101;BME280;45978;53.646;55.930;2022-12-29T05:12:38;100448.06;;;-6.98;67.20
60101;BME280;45978;53.646;55.930;2022-12-29T05:13:44;100447.00;;;-7.02;67.33
60101;BME280;45978;53.646;55.930;2022-12-29T05:14:46;100454.13;;;-6.96;66.71
60101;BME280;45978;53.646;55.930;2022-12-29T05:15:50;100435.59;;;-7.08;67.48
60101;BME280;45978;53.646;55.930;2022-12-29T05:16:52;100449.97;;;-6.94;66.81
60101;BME280;45978;53.646;55.930;2022-12-29T05:17:54;100458.06;;;-6.85;66.97
60101;BME280;45978;53.646;55.930;2022-12-29T05:18:55;100436.56;;;-6.90;67.22
60101;BME280;45978;53.646;55.930;2022-12-29T05:19:57;100489.16;;;-6.59;66.40
60101;BME280;45978;53.646;55.930;2022-12-29T05:20:59;100445.06;;;-6.89;66.68
60101;BME280;45978;53.646;55.930;2022-12-29T05:22:01;100477.75;;;-6.66;66.21
60101;BME280;45978;53.646;55.930;2022-12-29T05:23:03;100474.47;;;-6.63;66.13
60101;BME280;45978;53.646;55.930;2022-12-29T05:24:04;100474.66;;;-6.60;66.34
60101;BME280;45978;53.646;55.930;2022-12-29T05:25:06;100474.31;;;-6.50;66.73
60101;BME280;45978;53.646;55.930;2022-12-29T05:26:20;100481.88;;;-6.51;65.74
60101;BME280;45978;53.646;55.930;2022-12-29T05:27:42;100476.06;;;-6.49;66.22
60101;BME280;45978;53.646;55.930;2022-12-29T05:28:53;100480.22;;;-6.51;66.20
60101;BME280;45978;53.646;55.930;2022-12-29T05:29:55;100480.44;;;-6.46;65.49
60101;BME280;45978;53.646;55.930;2022-12-29T05:30:56;100475.78;;;-6.55;65.43
60101;BME280;45978;53.646;55.930;2022-12-29T05:31:58;100465.22;;;-6.61;66.28
60101;BME280;45978;53.646;55.930;2022-12-29T05:32:59;100487.00;;;-6.51;66.13
60101;BME280;45978;53.646;55.930;2022-12-29T05:34:00;100485.16;;;-6.54;65.46
60101;BME280;45978;53.646;55.930;2022-12-29T05:35:03;100478.84;;;-6.44;65.41
60101;BME280;45978;53.646;55.930;2022-12-29T05:36:08;100477.72;;;-6.33;65.34
60101;BME280;45978;53.646;55.930;2022-12-29T05:37:14;100484.13;;;-6.41;65.15
60101;BME280;45978;53.646;55.930;2022-12-29T05:38:16;100475.72;;;-6.39;65.42
60101;BME280;45978;53.646;55.930;2022-12-29T05:39:18;100469.22;;;-6.32;65.33
60101;BME280;45978;53.646;55.930;2022-12-29T05:40:26;100487.97;;;-6.15;64.63
60101;BME280;45978;53.646;55.930;2022-12-29T05:41:31;100448.38;;;-6.23;64.81
60101;BME280;45978;53.646;55.930;2022-12-29T05:42:51;100464.31;;;-6.11;64.08
60101;BME280;45978;53.646;55.930;2022-12-29T05:44:27;100461.47;;;-5.99;64.36
60101;BME280;45978;53.646;55.930;2022-12-29T05:45:51;100480.19;;;-5.81;63.62
60101;BME280;45978;53.646;55.930;2022-12-29T05:47:09;100473.59;;;-5.95;63.72
60101;BME280;45978;53.646;55.930;2022-12-29T05:48:35;100444.00;;;-6.08;63.08
60101;BME280;45978;53.646;55.930;2022-12-29T05:49:55;100463.47;;;-5.92;62.80
60101;BME280;45978;53.646;55.930;2022-12-29T05:51:23;100451.31;;;-5.98;63.18
60101;BME280;45978;53.646;55.930;2022-12-29T05:52:27;100465.69;;;-6.00;63.10
60101;BME280;45978;53.646;55.930;2022-12-29T05:53:29;100446.63;;;-6.06;62.97
60101;BME280;45978;53.646;55.930;2022-12-29T05:54:31;100463.63;;;-6.07;62.83
60101;BME280;45978;53.646;55.930;2022-12-29T05:55:33;100443.69;;;-6.14;62.97
60101;BME280;45978;53.646;55.930;2022-12-29T05:56:35;100469.13;;;-5.99;63.39
60101;BME280;45978;53.646;55.930;2022-12-29T05:57:36;100457.75;;;-6.06;63.00
60101;BME280;45978;53.646;55.930;2022-12-29T05:58:59;100442.75;;;-6.16;62.89
60101;BME280;45978;53.646;55.930;2022-12-29T06:00:04;100456.53;;;-5.94;63.04
60101;BME280;45978;53.646;55.930;2022-12-29T06:01:15;100472.81;;;-5.92;63.07
60101;BME280;45978;53.646;55.930;2022-12-29T06:02:17;100474.88;;;-5.85;62.91
60101;BME280;45978;53.646;55.930;2022-12-29T06:03:18;100476.38;;;-5.71;63.15
60101;BME280;45978;53.646;55.930;2022-12-29T06:04:20;100456.59;;;-5.75;62.92
60101;BME280;45978;53.646;55.930;2022-12-29T06:05:23;100441.91;;;-5.79;62.46
60101;BME280;45978;53.646;55.930;2022-12-29T06:06:27;100468.50;;;-5.75;62.14
60101;BME280;45978;53.646;55.930;2022-12-29T06:07:29;100434.91;;;-5.83;62.31
60101;BME280;45978;53.646;55.930;2022-12-29T06:08:33;100475.78;;;-5.65;62.22
60101;BME280;45978;53.646;55.930;2022-12-29T06:09:36;100456.47;;;-5.78;61.94
60101;BME280;45978;53.646;55.930;2022-12-29T06:10:38;100484.31;;;-5.84;62.16
60101;BME280;45978;53.646;55.930;2022-12-29T06:11:40;100468.81;;;-5.87;62.05
60101;BME280;45978;53.646;55.930;2022-12-29T06:12:41;100472.16;;;-5.88;62.45
60101;BME280;45978;53.646;55.930;2022-12-29T06:13:42;100477.72;;;-5.79;61.96
60101;BME280;45978;53.646;55.930;2022-12-29T06:14:44;100482.41;;;-5.70;62.47
60101;BME280;45978;53.646;55.930;2022-12-29T06:15:48;100482.59;;;-5.66;62.86
60101;BME280;45978;53.646;55.930;2022-12-29T06:16:50;100463.66;;;-5.69;61.96
60101;BME280;45978;53.646;55.930;2022-12-29T06:17:52;100483.25;;;-5.52;61.92
60101;BME280;45978;53.646;55.930;2022-12-29T06:18:55;100477.25;;;-5.52;61.66
60101;BME280;45978;53.646;55.930;2022-12-29T06:19:57;100459.41;;;-5.51;61.39
60101;BME280;45978;53.646;55.930;2022-12-29T06:21:02;100477.66;;;-5.43;61.62
60101;BME280;45978;53.646;55.930;2022-12-29T06:22:04;100466.13;;;-5.53;61.17
60101;BME280;45978;53.646;55.930;2022-12-29T06:23:09;100462.06;;;-5.30;61.18
60101;BME280;45978;53.646;55.930;2022-12-29T06:24:11;100463.69;;;-5.32;61.25
60101;BME280;45978;53.646;55.930;2022-12-29T06:25:13;100461.59;;;-5.41;60.89
60101;BME280;45978;53.646;55.930;2022-12-29T06:26:17;100477.16;;;-5.36;60.85